Time;durP1;ratioP1;P1;durP2;ratioP2;P2;SDS_P1;SDS_P2;PMS_P1;PMS_P2;Temp;Humidity;BMP_temperature;BMP_pressure;BME280_temperature;BME280_humidity;BME280_pressure;Samples;Min_cycle;Max_cycle;Signal;HPM_P1;HPM_P2
2022/01/17 00:01:58;;;;;;;29.88;20.48;;;3.00;99.90;;;;;;5031606;28;20030;-56
2022/01/17 00:04:24;;;;;;;31.20;19.98;;;3.00;99.90;;;;;;5031582;28;20025;-55
2022/01/17 00:06:50;;;;;;;33.03;22.50;;;2.90;99.90;;;;;;5031204;28;20439;-57
2022/01/17 00:09:16;;;;;;;29.23;19.08;;;2.90;99.90;;;;;;5031406;28;20496;-56
2022/01/17 00:11:42;;;;;;;32.97;21.52;;;2.90;99.90;;;;;;5030515;28;20419;-55
2022/01/17 00:14:13;;;;;;;35.45;20.63;;;2.90;99.90;;;;;;5031495;28;20413;-56
2022/01/17 00:16:52;;;;;;;28.67;19.02;;;2.90;99.90;;;;;;5031217;28;20026;-57
2022/01/17 00:19:35;;;;;;;32.85;21.02;;;2.90;99.90;;;;;;5031231;28;20029;-54
2022/01/17 00:22:01;;;;;;;35.97;22.33;;;2.90;99.90;;;;;;5029797;28;20033;-57
2022/01/17 00:24:27;;;;;;;33.08;21.88;;;2.80;99.90;;;;;;5031097;28;20550;-56
2022/01/17 00:26:52;;;;;;;36.30;22.70;;;2.80;99.90;;;;;;5030956;28;20045;-56
2022/01/17 00:29:18;;;;;;;32.50;22.08;;;2.80;99.90;;;;;;5031042;28;20476;-55
2022/01/17 00:31:44;;;;;;;31.23;20.90;;;2.80;99.90;;;;;;5030740;28;20512;-57
2022/01/17 00:34:09;;;;;;;34.00;22.50;;;2.80;99.90;;;;;;5030897;28;20068;-57
2022/01/17 00:36:35;;;;;;;36.08;23.42;;;2.80;99.90;;;;;;5030423;28;20079;-55
2022/01/17 00:39:01;;;;;;;34.35;22.10;;;2.70;99.90;;;;;;5030889;28;20025;-56
2022/01/17 00:41:27;;;;;;;42.72;23.25;;;2.80;99.90;;;;;;5030701;28;20490;-57
2022/01/17 00:43:52;;;;;;;33.58;22.55;;;2.70;99.90;;;;;;5030677;28;20049;-57
2022/01/17 00:46:18;;;;;;;34.00;22.27;;;2.70;99.90;;;;;;5030678;28;20030;-57
2022/01/17 00:48:44;;;;;;;37.80;24.77;;;2.80;99.90;;;;;;5030666;28;20079;-56
2022/01/17 00:51:09;;;;;;;36.67;24.88;;;2.70;99.90;;;;;;5030773;28;20029;-56
2022/01/17 00:53:37;;;;;;;41.05;24.00;;;2.70;99.90;;;;;;5030365;28;20034;-55
2022/01/17 00:56:04;;;;;;;39.17;25.60;;;2.70;99.90;;;;;;5029459;28;20029;-57
2022/01/17 00:58:30;;;;;;;39.58;25.80;;;2.60;99.90;;;;;;5030609;28;20029;-57
2022/01/17 01:00:55;;;;;;;39.08;25.98;;;2.60;99.90;;;;;;5030399;28;20025;-57
2022/01/17 01:03:21;;;;;;;41.25;25.90;;;2.50;99.90;;;;;;5030592;28;20527;-56
2022/01/17 01:05:47;;;;;;;40.83;24.80;;;2.50;99.90;;;;;;5029026;28;20112;-54
2022/01/17 01:08:13;;;;;;;37.10;24.67;;;2.60;99.90;;;;;;5030400;28;20044;-55
2022/01/17 01:10:38;;;;;;;40.30;24.58;;;2.50;99.90;;;;;;5030215;28;20148;-55
2022/01/17 01:13:05;;;;;;;36.78;24.25;;;2.50;99.90;;;;;;5030481;28;20030;-55
2022/01/17 01:18:29;;;;;;;40.72;25.50;;;2.50;99.90;;;;;;5030539;28;20542;-57
2022/01/17 01:28:52;;;;;;;37.15;24.65;;;2.40;99.90;;;;;;5037019;28;20099;-55
2022/01/17 01:31:28;;;;;;;38.95;25.92;;;2.50;99.90;;;;;;5036963;28;20029;-55
2022/01/17 01:33:55;;;;;;;36.47;22.75;;;2.40;99.90;;;;;;5036751;28;20457;-56
2022/01/17 01:36:27;;;;;;;39.10;24.08;;;2.50;99.90;;;;;;5036795;28;20116;-56
2022/01/17 01:38:52;;;;;;;41.90;24.95;;;2.50;99.90;;;;;;5036928;28;20029;-57
2022/01/17 01:41:18;;;;;;;41.92;26.23;;;2.50;99.90;;;;;;5036811;28;20048;-55
2022/01/17 01:43:44;;;;;;;60.92;33.33;;;2.40;99.90;;;;;;5036754;28;20370;-56
2022/01/17 01:46:11;;;;;;;42.30;25.02;;;2.30;99.90;;;;;;5036747;28;20662;-57
2022/01/17 01:48:37;;;;;;;41.65;26.23;;;2.30;99.90;;;;;;5036553;28;20026;-56
2022/01/17 01:51:02;;;;;;;109.43;44.05;;;2.30;99.90;;;;;;5036604;28;20026;-57
2022/01/17 01:53:28;;;;;;;45.60;26.23;;;2.30;99.90;;;;;;5036691;28;20105;-57
2022/01/17 01:55:57;;;;;;;81.03;35.80;;;2.30;99.90;;;;;;5036484;28;20056;-57
2022/01/17 01:58:24;;;;;;;60.17;30.77;;;2.20;99.90;;;;;;5036687;28;20389;-57
2022/01/17 02:00:51;;;;;;;82.22;35.70;;;2.20;99.90;;;;;;5036429;28;20457;-56
2022/01/17 02:03:17;;;;;;;67.72;33.70;;;2.20;99.90;;;;;;5036545;28;20245;-56
2022/01/17 02:05:43;;;;;;;92.25;40.28;;;2.20;99.90;;;;;;5036777;28;20025;-57
2022/01/17 02:08:10;;;;;;;102.15;41.30;;;2.20;99.90;;;;;;5036505;28;20489;-57
2022/01/17 02:10:36;;;;;;;44.55;26.33;;;2.20;99.90;;;;;;5036465;28;20057;-56
2022/01/17 02:13:01;;;;;;;45.85;25.95;;;2.30;99.90;;;;;;5036433;28;20417;-57
2022/01/17 02:15:27;;;;;;;39.13;24.27;;;2.30;99.90;;;;;;5034145;28;20052;-54
2022/01/17 02:17:55;;;;;;;39.33;25.27;;;2.30;99.90;;;;;;5036494;28;20030;-56
2022/01/17 02:20:24;;;;;;;46.22;28.20;;;2.20;99.90;;;;;;5036210;28;20082;-57
2022/01/17 02:22:51;;;;;;;42.60;26.55;;;2.20;99.90;;;;;;5036378;28;20051;-56
2022/01/17 02:25:16;;;;;;;38.65;23.90;;;2.20;99.90;;;;;;5036403;28;20026;-57
2022/01/17 02:27:43;;;;;;;43.70;24.30;;;2.20;99.90;;;;;;5036320;28;20041;-55
2022/01/17 02:30:10;;;;;;;37.88;23.95;;;2.30;99.90;;;;;;5036424;28;20516;-57
2022/01/17 02:32:36;;;;;;;34.78;23.25;;;2.30;99.90;;;;;;5036168;28;20113;-56
2022/01/17 02:35:20;;;;;;;34.53;22.90;;;2.30;99.90;;;;;;5032934;28;20448;-56
2022/01/17 02:37:46;;;;;;;35.38;21.63;;;2.20;99.90;;;;;;5033075;28;20025;-57
2022/01/17 02:40:15;;;;;;;40.92;23.30;;;2.30;99.90;;;;;;5033163;28;20078;-57
2022/01/17 02:42:41;;;;;;;32.47;21.92;;;2.30;99.90;;;;;;5032913;28;20017;-59
2022/01/17 02:45:30;;;;;;;36.72;21.83;;;2.30;99.90;;;;;;5032944;28;20384;-56
2022/01/17 02:47:56;;;;;;;40.95;24.95;;;2.30;99.90;;;;;;5032915;28;20014;-54
2022/01/17 02:50:22;;;;;;;37.97;24.17;;;2.30;99.90;;;;;;5032815;28;20094;-56
2022/01/17 02:52:47;;;;;;;36.08;20.60;;;2.30;99.90;;;;;;5032808;28;20112;-57
2022/01/17 02:55:13;;;;;;;33.35;21.75;;;2.30;99.90;;;;;;5032875;28;20031;-56
2022/01/17 02:57:38;;;;;;;32.40;21.50;;;2.30;99.90;;;;;;5031289;28;20043;-55
2022/01/17 03:00:09;;;;;;;34.25;21.98;;;2.30;99.90;;;;;;5032702;28;20378;-53
2022/01/17 03:02:35;;;;;;;38.35;22.77;;;2.40;99.90;;;;;;5032523;28;20034;-55
2022/01/17 03:05:00;;;;;;;30.00;19.52;;;2.40;99.90;;;;;;5032765;28;20018;-56
2022/01/17 03:07:26;;;;;;;30.30;20.58;;;2.50;99.90;;;;;;5032596;28;20018;-56
2022/01/17 03:10:07;;;;;;;36.70;20.52;;;2.40;99.90;;;;;;5032579;28;20112;-57
2022/01/17 03:12:33;;;;;;;33.45;20.45;;;2.40;99.90;;;;;;5032568;28;20546;-56
2022/01/17 03:14:59;;;;;;;33.72;20.13;;;2.40;99.90;;;;;;5032251;28;20057;-55
2022/01/17 03:17:24;;;;;;;34.53;19.42;;;2.50;99.90;;;;;;5031148;28;20026;-57
2022/01/17 03:19:50;;;;;;;30.70;18.73;;;2.50;99.90;;;;;;5032122;28;20028;-52
2022/01/17 03:22:16;;;;;;;30.13;18.35;;;2.50;99.90;;;;;;5031889;28;20432;-56
2022/01/17 03:24:42;;;;;;;34.38;19.42;;;2.40;99.90;;;;;;5032175;28;20017;-57
2022/01/17 03:27:07;;;;;;;28.25;18.92;;;2.40;99.90;;;;;;5032329;28;20022;-56
2022/01/17 03:29:33;;;;;;;30.42;20.33;;;2.40;99.90;;;;;;5032002;28;20099;-55
2022/01/17 03:31:59;;;;;;;28.05;16.80;;;2.40;99.90;;;;;;5032110;28;20538;-57
2022/01/17 03:34:24;;;;;;;25.30;15.10;;;2.50;99.90;;;;;;5032176;28;20028;-56
2022/01/17 03:36:50;;;;;;;26.17;16.23;;;2.50;99.90;;;;;;5031961;28;20125;-55
2022/01/17 03:39:16;;;;;;;24.27;16.92;;;2.50;99.90;;;;;;5032043;28;20022;-56
2022/01/17 03:41:42;;;;;;;26.80;18.08;;;2.50;99.90;;;;;;5031795;28;20021;-57
2022/01/17 03:44:08;;;;;;;24.08;16.70;;;2.40;99.90;;;;;;5032049;28;20337;-55
2022/01/17 03:46:34;;;;;;;21.05;14.15;;;2.50;99.90;;;;;;5029026;28;20029;-57
2022/01/17 03:49:00;;;;;;;25.88;16.85;;;2.50;99.90;;;;;;5031852;28;20487;-55
2022/01/17 03:51:26;;;;;;;22.58;15.25;;;2.50;99.90;;;;;;5031904;28;20030;-56
2022/01/17 03:53:52;;;;;;;21.10;15.18;;;2.50;99.90;;;;;;5031023;28;20095;-56
2022/01/17 03:56:18;;;;;;;21.98;14.25;;;2.50;99.90;;;;;;5031721;28;20022;-56
2022/01/17 03:58:47;;;;;;;20.98;14.13;;;2.60;99.90;;;;;;5031594;28;20032;-55
2022/01/17 04:01:12;;;;;;;23.08;13.65;;;2.60;99.90;;;;;;5031536;28;20193;-55
2022/01/17 04:03:38;;;;;;;22.25;13.27;;;2.70;99.90;;;;;;5031609;28;20616;-56
2022/01/17 04:06:05;;;;;;;19.63;13.05;;;2.70;99.90;;;;;;5032055;28;20021;-56
2022/01/17 04:08:31;;;;;;;22.45;14.70;;;2.70;99.90;;;;;;5031524;28;20025;-56
2022/01/17 04:10:57;;;;;;;18.77;12.98;;;2.70;99.90;;;;;;5031639;28;20449;-56
2022/01/17 04:13:23;;;;;;;19.25;13.70;;;2.70;99.90;;;;;;5031740;28;20034;-56
2022/01/17 04:15:49;;;;;;;19.23;12.07;;;2.80;99.90;;;;;;5030999;28;20132;-55
2022/01/17 04:18:19;;;;;;;19.17;12.68;;;2.80;99.90;;;;;;5031425;28;20056;-55
2022/01/17 04:20:45;;;;;;;19.83;13.18;;;2.80;99.90;;;;;;5031083;28;20040;-56
2022/01/17 04:23:12;;;;;;;20.38;12.20;;;2.80;99.90;;;;;;5031192;28;20029;-53
2022/01/17 04:25:39;;;;;;;17.65;11.45;;;2.80;99.90;;;;;;5029567;28;20018;-57
2022/01/17 04:28:07;;;;;;;15.80;11.20;;;2.80;99.90;;;;;;5031158;28;20056;-54
2022/01/17 04:30:33;;;;;;;19.15;12.93;;;2.80;99.90;;;;;;5030936;28;20038;-55
2022/01/17 04:32:59;;;;;;;18.70;11.75;;;2.80;99.90;;;;;;5030941;28;20029;-57
2022/01/17 04:35:26;;;;;;;17.35;11.55;;;2.80;99.90;;;;;;5029674;28;20030;-55
2022/01/17 04:38:02;;;;;;;14.77;10.55;;;2.80;99.90;;;;;;5030845;28;20049;-57
2022/01/17 04:40:35;;;;;;;16.05;10.32;;;2.80;99.90;;;;;;5030969;28;20420;-57
2022/01/17 04:43:04;;;;;;;18.27;12.52;;;2.80;99.90;;;;;;5030851;28;20014;-57
2022/01/17 04:45:30;;;;;;;15.75;9.90;;;2.80;99.90;;;;;;5030737;28;20334;-56
2022/01/17 04:47:56;;;;;;;15.45;11.43;;;2.80;99.90;;;;;;5030638;28;20155;-55
2022/01/17 04:50:25;;;;;;;13.85;9.02;;;2.80;99.90;;;;;;5030689;28;20112;-55
2022/01/17 04:52:54;;;;;;;15.15;9.50;;;2.80;99.90;;;;;;5029379;28;20029;-56
2022/01/17 04:55:21;;;;;;;13.02;9.10;;;2.90;99.90;;;;;;5030774;28;20025;-55
2022/01/17 04:57:47;;;;;;;15.15;9.20;;;2.90;99.90;;;;;;5029728;28;20030;-56
2022/01/17 05:00:16;;;;;;;13.68;9.70;;;2.90;99.90;;;;;;5030238;28;20032;-56
2022/01/17 05:02:42;;;;;;;14.65;10.23;;;2.90;99.90;;;;;;5030384;28;20499;-55
2022/01/17 05:05:09;;;;;;;12.60;8.43;;;3.00;99.90;;;;;;5030738;28;20029;-57
2022/01/17 05:07:35;;;;;;;13.82;9.32;;;3.00;99.90;;;;;;5030430;28;20022;-54
2022/01/17 05:10:05;;;;;;;13.63;9.40;;;2.90;99.90;;;;;;5030762;28;20064;-56
2022/01/17 05:12:31;;;;;;;12.93;9.20;;;2.90;99.90;;;;;;5030075;28;20032;-54
2022/01/17 05:14:58;;;;;;;43.90;17.85;;;2.90;99.90;;;;;;5030021;28;20490;-56
2022/01/17 05:19:59;;;;;;;13.93;8.93;;;2.90;99.90;;;;;;5030261;28;20502;-56
2022/01/17 05:22:31;;;;;;;11.65;9.02;;;2.90;99.90;;;;;;5030484;28;20108;-55
2022/01/17 05:24:57;;;;;;;13.45;9.52;;;2.90;99.90;;;;;;5030251;28;20017;-57
2022/01/17 05:27:23;;;;;;;12.63;8.85;;;3.00;99.90;;;;;;5028982;28;20025;-57
2022/01/17 05:29:49;;;;;;;13.68;10.45;;;3.00;99.90;;;;;;5029946;28;20041;-56
2022/01/17 05:32:15;;;;;;;13.02;9.27;;;3.10;99.90;;;;;;5030298;28;20017;-55
2022/01/17 05:34:41;;;;;;;11.60;8.95;;;3.10;99.90;;;;;;5030164;28;20052;-56
2022/01/17 05:37:13;;;;;;;11.52;8.32;;;3.10;99.90;;;;;;5030165;28;20022;-55
2022/01/17 05:39:39;;;;;;;10.93;8.23;;;3.20;99.90;;;;;;5028583;28;20484;-55
2022/01/17 05:42:05;;;;;;;10.38;8.38;;;3.20;99.90;;;;;;5029722;28;20022;-55
2022/01/17 05:44:31;;;;;;;12.63;8.40;;;3.20;99.90;;;;;;5029522;28;20026;-55
2022/01/17 05:46:57;;;;;;;11.35;6.95;;;3.20;99.90;;;;;;5029955;28;20025;-55
2022/01/17 05:49:23;;;;;;;9.63;8.05;;;3.20;99.90;;;;;;5029726;28;20028;-56
2022/01/17 05:51:49;;;;;;;10.57;7.60;;;3.20;99.90;;;;;;5030040;28;20030;-55
2022/01/17 05:54:16;;;;;;;9.48;7.63;;;3.10;99.90;;;;;;5028703;28;20056;-56
2022/01/17 05:56:42;;;;;;;10.82;7.40;;;3.20;99.90;;;;;;5029789;28;20029;-56
2022/01/17 05:59:08;;;;;;;11.65;7.57;;;3.20;99.90;;;;;;5027841;28;20507;-55
2022/01/17 06:01:38;;;;;;;12.43;8.07;;;3.20;99.90;;;;;;5029817;28;20056;-57
2022/01/17 06:04:05;;;;;;;12.43;7.35;;;3.20;99.90;;;;;;5029603;28;20025;-57
2022/01/17 06:06:30;;;;;;;12.35;9.35;;;3.20;99.90;;;;;;5016242;28;20030;-55
2022/01/17 06:08:56;;;;;;;10.93;9.13;;;3.20;99.90;;;;;;5010772;28;20100;-55
2022/01/17 06:11:22;;;;;;;15.35;8.40;;;3.20;99.90;;;;;;5013436;28;20083;-55
2022/01/17 06:13:47;;;;;;;10.00;7.57;;;3.20;99.90;;;;;;5013554;28;20021;-56
2022/01/17 06:16:13;;;;;;;10.98;8.48;;;3.10;99.90;;;;;;5031679;28;20080;-55
2022/01/17 06:18:39;;;;;;;9.60;7.10;;;3.20;99.90;;;;;;5033380;28;20030;-56
2022/01/17 06:21:05;;;;;;;10.20;7.20;;;3.20;99.90;;;;;;5031892;28;20099;-57
2022/01/17 06:23:31;;;;;;;10.52;7.18;;;3.20;99.90;;;;;;5033434;28;20108;-56
2022/01/17 06:25:56;;;;;;;9.30;6.80;;;3.20;99.90;;;;;;5032606;28;20105;-55
2022/01/17 06:28:22;;;;;;;9.80;7.10;;;3.30;99.90;;;;;;5033189;28;20030;-57
2022/01/17 06:30:49;;;;;;;12.55;8.13;;;3.20;99.90;;;;;;5032805;28;20025;-55
2022/01/17 06:33:15;;;;;;;9.05;7.30;;;3.20;99.90;;;;;;5031912;28;20025;-56
2022/01/17 06:35:41;;;;;;;10.32;6.97;;;3.10;99.90;;;;;;5032364;28;20503;-55
2022/01/17 06:38:07;;;;;;;9.57;7.25;;;3.20;99.90;;;;;;5033197;28;20032;-54
2022/01/17 06:40:32;;;;;;;11.63;8.02;;;3.20;99.90;;;;;;5031278;28;20030;-56
2022/01/17 06:42:58;;;;;;;8.88;6.85;;;3.30;99.90;;;;;;5032952;28;20017;-56
2022/01/17 06:45:24;;;;;;;9.70;7.65;;;3.20;99.90;;;;;;5032809;28;20441;-56
2022/01/17 06:47:50;;;;;;;11.27;9.13;;;3.20;99.90;;;;;;5032603;28;20025;-56
2022/01/17 06:50:16;;;;;;;8.80;7.22;;;3.20;99.90;;;;;;5032255;28;20116;-55
2022/01/17 06:52:42;;;;;;;9.02;7.53;;;3.20;99.90;;;;;;5032009;28;20022;-57
2022/01/17 06:55:13;;;;;;;8.82;7.45;;;3.20;99.90;;;;;;5032892;28;20499;-56
2022/01/17 06:57:39;;;;;;;9.98;7.70;;;3.20;99.90;;;;;;5033323;28;20025;-55
2022/01/17 07:00:10;;;;;;;9.77;7.43;;;3.20;99.90;;;;;;5031830;28;20032;-56
2022/01/17 07:02:36;;;;;;;10.10;8.23;;;3.20;99.90;;;;;;5031769;28;20068;-56
2022/01/17 07:05:03;;;;;;;8.25;6.47;;;3.20;99.90;;;;;;5032342;28;20025;-56
2022/01/17 07:07:28;;;;;;;9.98;7.20;;;3.20;99.90;;;;;;5031164;28;20071;-56
2022/01/17 07:09:54;;;;;;;10.95;7.78;;;3.20;99.90;;;;;;5032149;28;20436;-57
2022/01/17 07:12:19;;;;;;;11.48;8.13;;;3.20;99.90;;;;;;5032142;28;20072;-55
2022/01/17 07:14:45;;;;;;;19.25;11.13;;;3.30;99.90;;;;;;5032195;28;20095;-56
2022/01/17 07:17:12;;;;;;;12.45;8.27;;;3.30;99.90;;;;;;5032324;28;20108;-56
2022/01/17 07:19:38;;;;;;;19.48;11.85;;;3.30;99.90;;;;;;5031866;28;20048;-57
2022/01/17 07:22:08;;;;;;;22.00;9.45;;;3.30;99.90;;;;;;5030625;28;20033;-55
2022/01/17 07:24:36;;;;;;;10.02;8.05;;;3.30;99.90;;;;;;5032205;28;20025;-56
2022/01/17 07:27:02;;;;;;;19.30;14.70;;;3.30;99.90;;;;;;5032143;28;20029;-56
2022/01/17 07:29:27;;;;;;;11.63;10.38;;;3.30;99.90;;;;;;5032287;28;20067;-56
2022/01/17 07:31:54;;;;;;;12.38;8.20;;;3.30;99.90;;;;;;5031591;28;20448;-53
2022/01/17 07:34:20;;;;;;;10.23;7.75;;;3.40;99.90;;;;;;5032099;28;20021;-54
2022/01/17 07:36:46;;;;;;;12.75;9.52;;;3.40;99.90;;;;;;5032122;28;20112;-56
2022/01/17 07:39:11;;;;;;;12.05;10.40;;;3.40;99.90;;;;;;5031819;28;20034;-56
2022/01/17 07:41:37;;;;;;;7.88;7.05;;;3.40;99.90;;;;;;5031628;28;20028;-56
2022/01/17 07:44:05;;;;;;;11.38;7.10;;;3.40;99.90;;;;;;5031929;28;20025;-54
2022/01/17 07:46:47;;;;;;;8.43;7.30;;;3.40;99.90;;;;;;5031878;28;20036;-58
2022/01/17 07:49:19;;;;;;;9.18;7.18;;;3.40;99.90;;;;;;5031819;28;20030;-56
2022/01/17 07:51:48;;;;;;;10.38;7.93;;;3.50;99.90;;;;;;5031687;28;20043;-57
2022/01/17 07:54:16;;;;;;;12.32;7.90;;;3.40;99.90;;;;;;5031602;28;20029;-56
2022/01/17 07:56:43;;;;;;;10.95;6.97;;;3.50;99.90;;;;;;5031765;28;20049;-55
2022/01/17 07:59:10;;;;;;;19.58;10.95;;;3.40;99.90;;;;;;5031376;28;20037;-56
2022/01/17 08:01:37;;;;;;;12.88;8.20;;;3.40;99.90;;;;;;5031229;28;20021;-55
2022/01/17 08:04:04;;;;;;;17.38;11.65;;;3.50;99.90;;;;;;5031450;28;20462;-56
2022/01/17 08:06:30;;;;;;;17.38;9.32;;;3.50;99.90;;;;;;5031013;28;20028;-56
2022/01/17 08:08:57;;;;;;;13.30;9.70;;;3.60;99.90;;;;;;5030891;28;20642;-57
2022/01/17 08:11:23;;;;;;;13.13;9.18;;;3.60;99.90;;;;;;5031531;28;20033;-55
2022/01/17 08:13:48;;;;;;;11.68;8.30;;;3.50;99.90;;;;;;5030760;28;20029;-58
2022/01/17 08:16:15;;;;;;;10.40;8.40;;;3.50;99.90;;;;;;5030978;28;20045;-58
2022/01/17 08:18:41;;;;;;;17.80;11.50;;;3.50;99.90;;;;;;5030885;28;20017;-56
2022/01/17 08:21:07;;;;;;;25.20;13.55;;;3.40;99.90;;;;;;5029767;28;20079;-56
2022/01/17 08:23:33;;;;;;;10.43;8.75;;;3.40;99.90;;;;;;5029405;28;20021;-56
2022/01/17 08:25:58;;;;;;;12.88;9.85;;;3.40;99.90;;;;;;5031498;28;20026;-56
2022/01/17 08:28:24;;;;;;;10.52;8.02;;;3.30;99.90;;;;;;5030704;28;20473;-53
2022/01/17 08:30:50;;;;;;;10.75;8.07;;;3.40;99.90;;;;;;5031055;28;20114;-55
2022/01/17 08:33:16;;;;;;;9.13;6.68;;;3.40;99.90;;;;;;5030101;28;20143;-56
2022/01/17 08:35:41;;;;;;;10.80;7.38;;;3.50;99.90;;;;;;5030661;28;20044;-56
2022/01/17 08:38:07;;;;;;;10.57;7.57;;;3.50;99.90;;;;;;5030501;28;20034;-55
2022/01/17 08:40:33;;;;;;;10.10;7.15;;;3.50;99.90;;;;;;5030506;28;20061;-56
2022/01/17 08:42:58;;;;;;;11.30;7.90;;;3.40;99.90;;;;;;5030497;28;20053;-55
2022/01/17 08:45:26;;;;;;;10.52;7.35;;;3.50;99.90;;;;;;5031728;28;20022;-56
2022/01/17 08:47:52;;;;;;;8.90;7.28;;;3.50;99.90;;;;;;5031653;28;20488;-56
2022/01/17 08:50:21;;;;;;;8.55;6.60;;;3.50;99.90;;;;;;5030697;28;20079;-56
2022/01/17 08:52:47;;;;;;;10.15;7.35;;;3.60;99.90;;;;;;5030301;28;20481;-56
2022/01/17 08:55:15;;;;;;;8.73;6.28;;;3.60;99.90;;;;;;5031304;28;20061;-54
2022/01/17 08:57:40;;;;;;;9.35;7.25;;;3.70;99.90;;;;;;5030955;28;20029;-56
2022/01/17 09:00:10;;;;;;;12.82;7.97;;;3.60;99.90;;;;;;5030141;28;20022;-56
2022/01/17 09:02:36;;;;;;;10.40;8.98;;;3.60;99.90;;;;;;5029959;28;20025;-57
2022/01/17 09:05:03;;;;;;;9.73;7.40;;;3.70;99.90;;;;;;5030202;28;20384;-56
2022/01/17 09:07:28;;;;;;;12.43;9.27;;;3.80;99.90;;;;;;5030498;28;20088;-56
2022/01/17 09:09:54;;;;;;;10.45;8.07;;;3.70;99.90;;;;;;5029528;28;20045;-55
2022/01/17 09:12:20;;;;;;;10.10;7.32;;;3.80;99.90;;;;;;5028730;28;20021;-55
2022/01/17 09:14:45;;;;;;;10.55;8.02;;;3.80;99.90;;;;;;5029052;28;20058;-53
2022/01/17 09:17:12;;;;;;;8.43;7.15;;;3.90;99.90;;;;;;5029580;28;20044;-53
2022/01/17 09:19:39;;;;;;;11.48;8.60;;;4.00;99.90;;;;;;5020586;28;20026;-55
2022/01/17 09:22:06;;;;;;;9.10;7.28;;;4.00;99.90;;;;;;5025697;28;20419;-56
2022/01/17 09:24:33;;;;;;;10.38;7.15;;;4.00;99.90;;;;;;5030089;28;20391;-56
2022/01/17 09:26:59;;;;;;;12.43;7.10;;;4.10;99.90;;;;;;5030017;28;20025;-56
2022/01/17 09:29:24;;;;;;;10.80;7.85;;;4.10;99.90;;;;;;5029986;28;20103;-55
2022/01/17 09:31:50;;;;;;;8.20;6.78;;;4.20;99.90;;;;;;5029992;28;20079;-56
2022/01/17 09:34:16;;;;;;;9.63;7.00;;;4.20;99.90;;;;;;5029977;28;20098;-55
2022/01/17 09:36:42;;;;;;;10.98;8.20;;;4.20;99.90;;;;;;5029922;28;20033;-56
2022/01/17 09:39:08;;;;;;;12.38;8.75;;;4.10;99.90;;;;;;5030149;28;20480;-53
2022/01/17 09:41:33;;;;;;;19.48;9.77;;;4.20;99.90;;;;;;5028396;28;20032;-55
2022/01/17 09:44:01;;;;;;;26.92;16.52;;;4.20;99.90;;;;;;5032368;28;20022;-56
2022/01/17 09:46:33;;;;;;;9.30;6.65;;;4.30;99.90;;;;;;5033634;28;20076;-55
2022/01/17 09:49:13;;;;;;;9.68;7.40;;;4.30;99.90;;;;;;5033582;28;20030;-53
2022/01/17 09:54:25;;;;;;;22.55;16.23;;;4.20;99.90;;;;;;5033978;28;20103;-56
2022/01/17 09:56:53;;;;;;;19.20;11.82;;;4.20;99.90;;;;;;5032930;28;20472;-54
2022/01/17 09:59:19;;;;;;;39.67;25.42;;;4.20;99.90;;;;;;5033885;28;20045;-53
2022/01/17 10:01:45;;;;;;;9.55;7.93;;;4.20;99.90;;;;;;5033589;28;20029;-55
2022/01/17 10:04:10;;;;;;;9.40;7.30;;;4.30;99.90;;;;;;5034652;28;20032;-58
2022/01/17 10:06:51;;;;;;;10.10;7.75;;;4.30;99.90;;;;;;5034311;28;20025;-57
2022/01/17 10:09:21;;;;;;;8.07;5.97;;;4.20;99.90;;;;;;5034638;28;20021;-57
2022/01/17 10:12:12;;;;;;;10.38;6.72;;;4.10;99.90;;;;;;5033074;28;20022;-55
2022/01/17 10:14:43;;;;;;;12.32;8.35;;;4.20;99.90;;;;;;5034410;28;20037;-55
2022/01/17 10:17:13;;;;;;;10.52;7.70;;;4.20;99.90;;;;;;5034163;28;20358;-56
2022/01/17 10:19:40;;;;;;;7.85;6.28;;;4.20;99.90;;;;;;5033379;28;20033;-57
2022/01/17 10:22:13;;;;;;;12.73;8.00;;;4.20;99.90;;;;;;5033045;28;20120;-56
2022/01/17 10:27:58;;;;;;;8.60;6.85;;;4.20;99.90;;;;;;5033312;28;20032;-55
2022/01/17 10:30:42;;;;;;;8.82;6.57;;;4.40;99.90;;;;;;5033023;28;20033;-55
2022/01/17 10:35:38;;;;;;;7.45;6.28;;;4.30;99.90;;;;;;5033576;28;20022;-57
2022/01/17 10:38:14;;;;;;;11.02;7.50;;;4.40;99.90;;;;;;5034005;28;20429;-56
2022/01/17 10:40:56;;;;;;;8.65;5.82;;;4.40;99.90;;;;;;5033915;28;20025;-57
2022/01/17 10:43:39;;;;;;;7.25;6.07;;;4.50;99.90;;;;;;5034077;28;20026;-56
2022/01/17 10:46:10;;;;;;;6.20;5.45;;;4.50;99.90;;;;;;5034081;28;20018;-56
2022/01/17 10:48:39;;;;;;;6.97;5.95;;;4.60;99.90;;;;;;5033725;28;20139;-54
2022/01/17 10:51:07;;;;;;;5.38;4.78;;;4.60;99.90;;;;;;5034124;28;20036;-56
2022/01/17 10:53:33;;;;;;;8.85;5.45;;;4.60;99.90;;;;;;5034106;28;20079;-56
2022/01/17 10:56:06;;;;;;;5.45;4.95;;;4.60;99.90;;;;;;5031775;28;20397;-53
2022/01/17 10:58:33;;;;;;;11.55;5.65;;;4.60;99.90;;;;;;5033996;28;20424;-56
2022/01/17 11:01:11;;;;;;;5.55;5.00;;;4.60;99.90;;;;;;5033858;28;20029;-56
2022/01/17 11:03:48;;;;;;;6.18;5.32;;;4.60;99.90;;;;;;5033737;28;20052;-54
2022/01/17 11:06:19;;;;;;;7.07;6.40;;;4.60;99.90;;;;;;5033936;28;20024;-56
2022/01/17 11:08:46;;;;;;;5.07;4.57;;;4.70;99.90;;;;;;5033576;28;20025;-54
2022/01/17 11:11:12;;;;;;;5.60;4.82;;;4.70;99.90;;;;;;5032279;28;20026;-57
2022/01/17 11:13:43;;;;;;;6.07;5.28;;;4.70;99.90;;;;;;5033293;28;20034;-53
2022/01/17 11:16:12;;;;;;;7.15;6.18;;;4.70;99.90;;;;;;5029880;28;20547;-54
2022/01/17 11:18:42;;;;;;;6.88;4.45;;;4.70;99.90;;;;;;5031563;28;20025;-56
2022/01/17 11:21:14;;;;;;;5.70;5.00;;;4.80;99.90;;;;;;5031695;28;20026;-55
2022/01/17 11:23:43;;;;;;;5.78;5.28;;;4.70;99.90;;;;;;5031594;28;20068;-56
2022/01/17 11:26:10;;;;;;;7.93;5.78;;;4.80;99.90;;;;;;5031792;28;20029;-55
2022/01/17 11:28:37;;;;;;;17.33;9.18;;;4.90;99.90;;;;;;5030369;28;20025;-55
2022/01/17 11:31:07;;;;;;;7.18;5.90;;;4.80;99.90;;;;;;5032934;28;20245;-56
2022/01/17 11:33:34;;;;;;;20.00;9.07;;;4.90;99.90;;;;;;5032208;28;20025;-52
2022/01/17 11:36:00;;;;;;;9.02;5.50;;;4.80;99.90;;;;;;5030101;28;20712;-56
2022/01/17 11:38:39;;;;;;;93.25;24.15;;;4.80;99.90;;;;;;5039477;28;20029;-57
2022/01/17 11:41:19;;;;;;;23.92;10.93;;;4.80;99.90;;;;;;5038597;28;20035;-56
2022/01/17 11:43:58;;;;;;;30.50;11.95;;;4.80;99.90;;;;;;5023313;28;20036;-56
2022/01/17 11:46:27;;;;;;;113.40;35.85;;;4.80;99.90;;;;;;5042063;28;20552;-56
2022/01/17 11:48:57;;;;;;;17.98;9.38;;;4.70;99.90;;;;;;5041721;28;20029;-56
2022/01/17 11:51:24;;;;;;;12.35;8.38;;;4.70;99.90;;;;;;5042199;28;20037;-54
2022/01/17 11:53:54;;;;;;;6.50;5.60;;;4.70;99.90;;;;;;5039810;28;20052;-56
2022/01/17 11:56:44;;;;;;;8.15;5.43;;;4.70;99.90;;;;;;5022346;28;20479;-56
2022/01/17 11:59:43;;;;;;;7.38;5.72;;;4.70;99.90;;;;;;5022162;28;20030;-56
2022/01/17 12:02:20;;;;;;;5.40;4.45;;;4.70;99.90;;;;;;5020072;28;20040;-56
2022/01/17 12:05:07;;;;;;;5.93;5.10;;;4.80;99.90;;;;;;5021027;28;20026;-56
2022/01/17 12:07:40;;;;;;;6.80;5.38;;;4.70;99.90;;;;;;5019361;28;20037;-55
2022/01/17 12:10:08;;;;;;;6.43;5.05;;;4.70;99.90;;;;;;5020770;28;20488;-57
2022/01/17 12:12:34;;;;;;;7.60;5.80;;;4.70;99.90;;;;;;5025354;28;20079;-55
2022/01/17 12:15:05;;;;;;;5.60;5.10;;;4.70;99.90;;;;;;5041592;28;20045;-54
2022/01/17 12:17:31;;;;;;;5.45;4.93;;;4.70;99.90;;;;;;5041599;28;20179;-54
2022/01/17 12:20:07;;;;;;;6.82;5.88;;;4.70;99.90;;;;;;5039883;28;20547;-56
2022/01/17 12:23:10;;;;;;;6.10;5.40;;;4.70;99.90;;;;;;5041620;28;20025;-55
2022/01/17 12:25:36;;;;;;;7.13;4.75;;;4.70;99.90;;;;;;5040855;28;20043;-56
2022/01/17 12:28:04;;;;;;;16.52;5.75;;;4.70;99.90;;;;;;5020641;28;20029;-56
2022/01/17 12:30:51;;;;;;;7.05;6.22;;;4.70;99.90;;;;;;5026512;28;20124;-56
2022/01/17 12:33:39;;;;;;;6.47;5.28;;;4.80;99.90;;;;;;5025726;28;20028;-53
2022/01/17 12:36:25;;;;;;;6.88;5.63;;;4.70;99.90;;;;;;5013488;28;20485;-56
2022/01/17 12:38:51;;;;;;;8.85;6.18;;;4.80;99.90;;;;;;5012069;28;20026;-56
2022/01/17 12:41:36;;;;;;;9.07;7.38;;;4.70;99.90;;;;;;5027932;28;20025;-56
2022/01/17 12:44:13;;;;;;;6.10;4.85;;;4.70;99.90;;;;;;5030801;28;20108;-56
2022/01/17 12:46:44;;;;;;;6.97;5.63;;;4.80;99.90;;;;;;5030243;28;20120;-55
2022/01/17 12:49:10;;;;;;;6.15;5.28;;;4.80;99.90;;;;;;5027211;28;20029;-56
2022/01/17 12:51:41;;;;;;;5.38;4.82;;;4.80;99.90;;;;;;5024348;28;20025;-56
2022/01/17 12:54:12;;;;;;;6.47;5.45;;;4.80;99.90;;;;;;5024973;28;20026;-56
2022/01/17 12:56:41;;;;;;;6.45;5.50;;;4.80;99.90;;;;;;5029667;28;20041;-54
2022/01/17 12:59:09;;;;;;;9.60;5.95;;;4.70;99.90;;;;;;5021684;28;20412;-57
2022/01/17 13:01:35;;;;;;;8.38;5.38;;;4.80;99.90;;;;;;5024210;28;20037;-57
2022/01/17 13:04:04;;;;;;;8.25;5.38;;;4.80;99.90;;;;;;5031559;28;20086;-57
2022/01/17 13:06:31;;;;;;;7.38;5.95;;;4.80;99.90;;;;;;5031563;28;20080;-56
2022/01/17 13:08:59;;;;;;;12.55;6.07;;;4.80;99.90;;;;;;5031508;28;20556;-56
2022/01/17 13:11:25;;;;;;;7.82;6.07;;;4.80;99.90;;;;;;5031469;28;20024;-55
2022/01/17 13:13:59;;;;;;;5.88;5.10;;;4.80;99.90;;;;;;5031081;28;20822;-57